EFKK/KOK METAR and TAF weather

Enter ICAO airport designator
Station Type Date Time Source
EFKK METAR 2020/03/29 21:20 UTC NOAA

EFKK 292120Z AUTO 33003KT CAVOK M05/M07 Q1018


Station Type Date Time Source
EFKK Decoded METAR 2020/03/29 21:20 UTC NOAA

Kruunupyy, Finland (EFKK) 63-43N 023-09E
Mar 29, 2020 - 05:20 PM EDT / 2020.03.29 2120 UTC
Wind: from the NNW (330 degrees) at 3 MPH (3 KT):0
Visibility: greater than 7 mile(s):0
Temperature: 23 F (-5 C)
Dew Point: 19 F (-7 C)
Relative Humidity: 85%
Pressure (altimeter): 30.06 in. Hg (1018 hPa)
ob: EFKK 292120Z AUTO 33003KT CAVOK M05/M07 Q1018
cycle: 21

Station Type Date Time Source
EFKK TAF 2019/04/22 21:42 UTC NOAA

TAF EFKK 222023Z 2221/2321 18006KT CAVOK

Example: see airport list